createdAt,value
2023-05-15T00:01:52.974Z,3.40
2023-05-15T00:04:20.576Z,3.50
2023-05-15T00:06:48.086Z,3.13
2023-05-15T00:09:17.205Z,4.13
2023-05-15T00:11:47.150Z,3.60
2023-05-15T00:14:14.614Z,4.45
2023-05-15T00:16:42.089Z,4.53
2023-05-15T00:19:09.958Z,4.22
2023-05-15T00:21:37.600Z,4.32
2023-05-15T00:24:05.368Z,4.28
2023-05-15T00:26:32.806Z,3.90
2023-05-15T00:29:00.380Z,4.13
2023-05-15T00:31:27.991Z,3.92
2023-05-15T00:33:55.520Z,4.25
2023-05-15T00:36:24.378Z,4.03
2023-05-15T00:38:52.305Z,3.55
2023-05-15T00:41:21.755Z,4.60
2023-05-15T00:43:52.254Z,4.00
2023-05-15T00:46:20.709Z,5.00
2023-05-15T00:48:51.605Z,4.93
2023-05-15T00:51:19.081Z,5.13
2023-05-15T00:53:46.490Z,5.80
2023-05-15T00:56:16.905Z,5.75
2023-05-15T00:58:47.504Z,4.72
2023-05-15T01:01:16.751Z,4.50
2023-05-15T01:03:47.597Z,4.47
2023-05-15T01:06:15.514Z,4.15
2023-05-15T01:08:52.015Z,4.30
2023-05-15T01:11:20.142Z,3.78
2023-05-15T01:13:47.683Z,3.95
2023-05-15T01:16:15.437Z,4.15
2023-05-15T01:18:43.214Z,4.47
2023-05-15T01:21:54.017Z,4.57
2023-05-15T01:25:02.112Z,4.63
2023-05-15T01:27:45.407Z,4.15
2023-05-15T01:30:18.639Z,4.40
2023-05-15T01:33:27.797Z,4.72
2023-05-15T01:36:14.748Z,5.80
2023-05-15T01:38:52.947Z,6.00
2023-05-15T01:41:41.430Z,6.60
2023-05-15T01:44:18.332Z,6.68
2023-05-15T01:46:52.166Z,6.20
2023-05-15T01:49:23.832Z,6.00
2023-05-15T01:51:57.648Z,6.82
2023-05-15T01:54:25.966Z,5.85
2023-05-15T01:56:55.931Z,4.68
2023-05-15T01:59:25.391Z,5.65
2023-05-15T02:01:53.240Z,5.63
2023-05-15T02:04:22.179Z,5.45
2023-05-15T02:06:50.844Z,5.35
2023-05-15T02:09:19.841Z,5.68
2023-05-15T02:11:48.454Z,5.13
2023-05-15T02:14:17.498Z,5.05
2023-05-15T02:16:45.197Z,4.93
2023-05-15T02:19:12.790Z,4.53
2023-05-15T02:21:41.617Z,4.60
2023-05-15T02:24:11.443Z,5.28
2023-05-15T02:27:02.248Z,5.80
2023-05-15T02:30:10.862Z,5.63
2023-05-15T02:33:42.810Z,5.65
2023-05-15T02:36:16.417Z,173.57
2023-05-15T02:38:53.627Z,129.00
2023-05-15T02:41:23.271Z,6.97
2023-05-15T02:43:52.483Z,6.68
2023-05-15T02:46:25.413Z,7.82
2023-05-15T02:48:54.969Z,7.40
2023-05-15T02:51:22.496Z,7.65
2023-05-15T02:53:50.496Z,7.53
2023-05-15T02:56:20.949Z,7.28
2023-05-15T02:58:49.734Z,438.08
2023-05-15T03:01:17.192Z,619.63
2023-05-15T03:03:44.854Z,641.05
2023-05-15T03:06:14.488Z,773.47
2023-05-15T03:08:41.941Z,862.53
2023-05-15T03:11:09.393Z,845.67
2023-05-15T03:13:36.960Z,918.63
2023-05-15T03:16:04.803Z,911.67
2023-05-15T03:18:32.288Z,914.60
2023-05-15T03:20:59.698Z,999.90
2023-05-15T03:23:27.347Z,957.42
2023-05-15T03:25:54.807Z,947.45
2023-05-15T03:28:22.322Z,999.90
2023-05-15T03:30:49.820Z,989.42
2023-05-15T03:33:17.704Z,948.60
2023-05-15T03:35:45.663Z,971.50
2023-05-15T03:38:13.086Z,975.65
2023-05-15T03:40:40.989Z,976.30
2023-05-15T03:43:08.388Z,950.10
2023-05-15T03:45:44.568Z,972.33
2023-05-15T03:48:12.131Z,999.90
2023-05-15T03:50:40.337Z,981.15
2023-05-15T03:53:07.903Z,999.90
2023-05-15T03:55:36.101Z,999.90
2023-05-15T03:58:03.835Z,999.90
2023-05-15T04:00:31.266Z,999.90
2023-05-15T04:02:58.742Z,999.90
2023-05-15T04:05:26.829Z,999.90
2023-05-15T04:07:54.794Z,999.90
2023-05-15T04:10:22.419Z,999.90
2023-05-15T04:12:49.862Z,999.90
2023-05-15T04:15:29.378Z,999.90
2023-05-15T04:17:56.869Z,999.90
2023-05-15T04:20:30.555Z,999.90
2023-05-15T04:22:57.911Z,999.90
2023-05-15T04:25:25.680Z,999.90
2023-05-15T04:27:53.391Z,999.90
2023-05-15T04:30:20.873Z,999.90
2023-05-15T04:32:49.163Z,996.88
2023-05-15T04:35:19.530Z,999.90
2023-05-15T04:37:46.982Z,973.85
2023-05-15T04:40:18.107Z,959.50
2023-05-15T04:42:45.654Z,966.13
2023-05-15T04:45:14.653Z,975.50
2023-05-15T04:47:42.542Z,969.28
2023-05-15T04:50:10.576Z,912.47
2023-05-15T04:52:38.227Z,935.42
2023-05-15T04:55:06.508Z,943.30
2023-05-15T04:57:34.292Z,941.53
2023-05-15T05:00:02.170Z,950.53
2023-05-15T05:02:29.682Z,964.25
2023-05-15T05:05:00.017Z,948.50
2023-05-15T05:07:27.486Z,939.97
2023-05-15T05:09:54.877Z,936.08
2023-05-15T05:12:25.997Z,926.60
2023-05-15T05:14:56.531Z,927.47
2023-05-15T05:17:24.394Z,914.33
2023-05-15T05:19:51.895Z,914.55
2023-05-15T05:22:19.310Z,913.78
2023-05-15T05:24:46.996Z,905.72
2023-05-15T05:27:14.565Z,918.58
2023-05-15T05:29:42.014Z,920.60
2023-05-15T05:32:09.556Z,920.95
2023-05-15T05:34:37.100Z,931.15
2023-05-15T05:37:04.914Z,935.75
2023-05-15T05:39:32.402Z,937.45
2023-05-15T05:41:59.798Z,942.40
2023-05-15T05:44:27.348Z,948.20
2023-05-15T05:46:54.919Z,953.72
2023-05-15T05:49:24.545Z,941.45
2023-05-15T05:51:52.125Z,942.40
2023-05-15T05:54:19.633Z,936.30
2023-05-15T05:56:47.063Z,940.80
2023-05-15T05:59:17.216Z,942.05
2023-05-15T06:01:44.806Z,948.85
2023-05-15T06:04:12.431Z,951.80
2023-05-15T06:06:41.351Z,941.60
2023-05-15T06:09:08.793Z,938.38
2023-05-15T06:11:39.028Z,928.83
2023-05-15T06:14:08.572Z,927.33
2023-05-15T06:16:39.309Z,949.03
2023-05-15T06:19:09.276Z,954.92
2023-05-15T06:21:36.811Z,956.25
2023-05-15T06:24:04.336Z,945.33
2023-05-15T06:26:32.035Z,936.10
2023-05-15T06:29:02.373Z,932.15
2023-05-15T06:31:30.069Z,922.45
2023-05-15T06:33:57.627Z,907.30
2023-05-15T06:36:25.379Z,900.35
2023-05-15T06:38:52.878Z,909.00
2023-05-15T06:41:25.732Z,896.83
2023-05-15T06:43:55.878Z,899.38
2023-05-15T06:46:25.629Z,907.10
2023-05-15T06:48:53.225Z,900.42
2023-05-15T06:51:20.941Z,898.92
2023-05-15T06:53:50.288Z,900.42
2023-05-15T06:56:17.731Z,905.67
2023-05-15T06:58:45.243Z,894.90
2023-05-15T07:01:12.773Z,908.17
2023-05-15T07:03:40.213Z,904.95
2023-05-15T07:06:07.756Z,910.40
2023-05-15T07:08:35.658Z,907.65
2023-05-15T07:11:03.248Z,921.17
2023-05-15T07:13:30.850Z,902.60
2023-05-15T07:16:00.301Z,908.67
2023-05-15T07:18:28.247Z,889.00
2023-05-15T07:20:55.965Z,887.67
2023-05-15T07:23:24.683Z,883.20
2023-05-15T07:25:56.309Z,888.42
2023-05-15T07:28:23.840Z,905.70
2023-05-15T07:30:52.805Z,896.83
2023-05-15T07:33:20.332Z,906.17
2023-05-15T07:35:47.736Z,905.97
2023-05-15T07:38:15.383Z,900.80
2023-05-15T07:40:43.156Z,908.22
2023-05-15T07:43:10.738Z,908.80
2023-05-15T07:45:38.400Z,903.78
2023-05-15T07:48:19.650Z,908.25
2023-05-15T07:50:48.261Z,889.17
2023-05-15T07:53:18.488Z,909.17
2023-05-15T07:55:46.320Z,907.17
2023-05-15T07:58:14.570Z,904.95
2023-05-15T08:00:42.603Z,910.50
2023-05-15T08:03:11.413Z,871.92
2023-05-15T08:05:39.088Z,894.47
2023-05-15T08:08:07.053Z,883.78
2023-05-15T08:10:34.479Z,881.17
2023-05-15T08:13:02.088Z,910.95
2023-05-15T08:15:30.165Z,905.78
2023-05-15T08:17:58.087Z,880.63
2023-05-15T08:20:26.124Z,869.70
2023-05-15T08:22:53.567Z,902.03
2023-05-15T08:25:21.050Z,902.55
2023-05-15T08:27:48.437Z,895.08
2023-05-15T08:30:15.965Z,907.28
2023-05-15T08:32:46.018Z,888.20
2023-05-15T08:35:13.724Z,875.63
2023-05-15T08:37:41.273Z,869.55
2023-05-15T08:40:09.617Z,870.22
2023-05-15T08:42:45.489Z,868.15
2023-05-15T08:45:14.298Z,894.95
2023-05-15T08:47:43.202Z,893.50
2023-05-15T08:50:14.250Z,846.45
2023-05-15T08:52:48.329Z,835.05
2023-05-15T08:55:17.153Z,836.72
2023-05-15T08:57:45.356Z,843.65
2023-05-15T09:00:14.989Z,850.00
2023-05-15T09:02:43.285Z,797.17
2023-05-15T09:05:11.292Z,823.40
2023-05-15T09:07:40.573Z,779.15
2023-05-15T09:10:09.782Z,837.38
2023-05-15T09:12:43.989Z,820.17
2023-05-15T09:15:22.111Z,848.13
2023-05-15T09:17:51.305Z,818.17
2023-05-15T09:20:34.084Z,798.45
2023-05-15T09:23:03.393Z,778.80
2023-05-15T09:25:40.679Z,818.40
2023-05-15T09:28:25.530Z,833.78
2023-05-15T09:31:02.482Z,833.97
2023-05-15T09:33:48.291Z,800.00
2023-05-15T09:36:22.339Z,778.53
2023-05-15T09:38:49.962Z,761.38
2023-05-15T09:41:25.957Z,766.17
2023-05-15T09:43:57.072Z,735.08
2023-05-15T09:46:25.033Z,767.30
2023-05-15T09:48:56.280Z,772.17
2023-05-15T09:51:24.252Z,733.92
2023-05-15T09:53:55.425Z,746.45
2023-05-15T09:56:23.015Z,765.58
2023-05-15T09:58:55.213Z,766.38
2023-05-15T10:01:26.684Z,751.47
2023-05-15T10:03:59.468Z,760.55
2023-05-15T10:06:27.325Z,774.17
2023-05-15T10:08:55.252Z,774.03
2023-05-15T10:11:24.707Z,752.20
2023-05-15T10:13:52.271Z,727.45
2023-05-15T10:16:22.426Z,749.33
2023-05-15T10:18:54.484Z,728.25
2023-05-15T10:21:23.551Z,745.30
2023-05-15T10:23:52.581Z,739.97
2023-05-15T10:26:46.058Z,726.00
2023-05-15T10:29:15.093Z,716.80
2023-05-15T10:31:43.247Z,715.38
2023-05-15T10:34:12.039Z,712.88
2023-05-15T10:36:39.832Z,723.00
2023-05-15T10:39:08.296Z,720.35
2023-05-15T10:41:40.287Z,712.67
2023-05-15T10:44:08.330Z,706.13
2023-05-15T10:46:37.098Z,710.30
2023-05-15T10:49:05.717Z,711.30
2023-05-15T10:51:36.174Z,710.47
2023-05-15T10:54:04.087Z,715.90
2023-05-15T10:56:37.113Z,713.97
2023-05-15T10:59:11.570Z,692.85
2023-05-15T11:01:40.941Z,666.08
2023-05-15T11:04:16.494Z,660.20
2023-05-15T11:06:46.200Z,690.95
2023-05-15T11:09:43.218Z,686.00
2023-05-15T11:12:11.923Z,690.35
2023-05-15T11:15:03.349Z,682.13
2023-05-15T11:17:33.732Z,688.17
2023-05-15T11:20:01.411Z,683.15
2023-05-15T11:22:34.070Z,689.03
2023-05-15T11:25:16.154Z,690.45
2023-05-15T11:27:46.362Z,686.22
2023-05-15T11:30:20.685Z,697.80
2023-05-15T11:32:59.818Z,686.78
2023-05-15T11:35:39.230Z,672.75
2023-05-15T11:38:18.008Z,684.80
2023-05-15T11:40:56.753Z,681.88
2023-05-15T11:43:42.376Z,693.72
2023-05-15T11:46:11.226Z,691.45
2023-05-15T11:48:43.636Z,752.35
2023-05-15T11:51:27.542Z,762.70
2023-05-15T11:53:55.962Z,807.90
2023-05-15T11:56:25.128Z,838.15
2023-05-15T11:58:57.089Z,820.03
2023-05-15T12:03:54.408Z,877.70
2023-05-15T12:06:23.009Z,835.97
2023-05-15T12:08:53.964Z,807.50
2023-05-15T12:11:25.081Z,845.35
2023-05-15T12:13:54.454Z,834.13
2023-05-15T12:16:26.495Z,870.70
2023-05-15T12:18:56.479Z,855.35
2023-05-15T12:21:26.067Z,865.95
2023-05-15T12:24:06.406Z,864.55
2023-05-15T12:26:36.124Z,883.25
2023-05-15T12:29:04.864Z,900.33
2023-05-15T12:31:35.235Z,889.60
2023-05-15T12:34:02.961Z,894.78
2023-05-15T12:36:31.162Z,900.80
2023-05-15T12:38:58.857Z,909.67
2023-05-15T12:41:30.013Z,898.72
2023-05-15T12:43:57.476Z,896.20
2023-05-15T12:46:34.436Z,890.38
2023-05-15T12:49:02.096Z,846.33
2023-05-15T12:51:30.195Z,816.65
2023-05-15T12:53:58.367Z,729.97
2023-05-15T12:56:26.441Z,789.50
2023-05-15T12:58:56.038Z,722.10
2023-05-15T13:01:23.717Z,708.42
2023-05-15T13:03:51.758Z,719.95
2023-05-15T13:06:23.616Z,719.80
2023-05-15T13:08:51.572Z,721.00
2023-05-15T13:11:19.496Z,767.88
2023-05-15T13:13:49.542Z,775.13
2023-05-15T13:16:29.717Z,804.47
2023-05-15T13:18:58.530Z,813.15
2023-05-15T13:21:26.271Z,807.85
2023-05-15T13:23:53.770Z,815.65
2023-05-15T13:26:21.799Z,799.58
2023-05-15T13:28:49.285Z,783.63
2023-05-15T13:31:19.193Z,773.75
2023-05-15T13:33:46.798Z,819.75
2023-05-15T13:36:14.370Z,812.58
2023-05-15T13:38:41.847Z,842.78
2023-05-15T13:41:09.747Z,847.92
2023-05-15T13:43:39.565Z,822.03
2023-05-15T13:46:07.080Z,832.45
2023-05-15T13:48:34.690Z,821.67
2023-05-15T13:51:05.312Z,812.47
2023-05-15T13:53:32.793Z,781.42
2023-05-15T13:56:00.508Z,754.58
2023-05-15T13:58:28.432Z,778.25
2023-05-15T14:00:56.802Z,774.80
2023-05-15T14:03:26.819Z,809.92
2023-05-15T14:05:54.406Z,749.53
2023-05-15T14:08:21.908Z,726.95
2023-05-15T14:10:49.373Z,744.67
2023-05-15T14:13:16.859Z,723.20
2023-05-15T14:15:47.118Z,730.40
2023-05-15T14:18:14.566Z,739.00
2023-05-15T14:20:42.070Z,706.15
2023-05-15T14:23:09.556Z,744.88
2023-05-15T14:25:37.114Z,726.60
2023-05-15T14:28:10.801Z,737.67
2023-05-15T14:30:38.517Z,719.35
2023-05-15T14:33:06.244Z,717.67
2023-05-15T14:35:34.009Z,703.55
2023-05-15T14:38:01.500Z,702.67
2023-05-15T14:40:29.087Z,702.47
2023-05-15T14:42:56.590Z,704.03
2023-05-15T14:45:24.235Z,707.28
2023-05-15T14:47:52.485Z,704.45
2023-05-15T14:50:22.883Z,707.67
2023-05-15T14:52:50.900Z,713.17
2023-05-15T14:55:22.094Z,716.28
2023-05-15T14:57:52.737Z,720.38
2023-05-15T15:00:20.328Z,706.17
2023-05-15T15:02:47.903Z,700.28
2023-05-15T15:05:16.043Z,705.97
2023-05-15T15:08:04.200Z,706.17
2023-05-15T15:10:33.397Z,710.50
2023-05-15T15:13:01.360Z,718.05
2023-05-15T15:15:30.071Z,715.70
2023-05-15T15:17:57.977Z,706.03
2023-05-15T15:20:27.496Z,742.47
2023-05-15T15:22:55.977Z,710.90
2023-05-15T15:25:23.742Z,705.63
2023-05-15T15:27:51.356Z,716.83
2023-05-15T15:30:19.425Z,702.17
2023-05-15T15:32:49.131Z,706.67
2023-05-15T15:35:16.770Z,692.33
2023-05-15T15:37:44.222Z,692.20
2023-05-15T15:40:12.300Z,690.38
2023-05-15T15:42:39.862Z,665.65
2023-05-15T15:45:08.573Z,671.38
2023-05-15T15:47:44.767Z,736.15
2023-05-15T15:50:12.306Z,763.70
2023-05-15T15:52:39.850Z,787.67
2023-05-15T15:55:08.690Z,791.33
2023-05-15T15:57:37.011Z,815.05
2023-05-15T16:00:09.535Z,817.47
2023-05-15T16:02:37.453Z,823.00
2023-05-15T16:05:05.797Z,819.08
2023-05-15T16:07:33.612Z,783.17
2023-05-15T16:10:11.402Z,781.95
2023-05-15T16:12:40.843Z,756.55
2023-05-15T16:15:21.705Z,777.53
2023-05-15T16:20:18.387Z,807.08
2023-05-15T16:22:45.820Z,819.20
2023-05-15T16:25:13.247Z,831.45
2023-05-15T16:27:40.816Z,832.92
2023-05-15T16:30:09.519Z,853.70
2023-05-15T16:32:39.908Z,866.35
2023-05-15T16:35:08.045Z,860.72
2023-05-15T16:37:35.649Z,857.70
2023-05-15T16:40:04.037Z,854.00
2023-05-15T16:42:38.068Z,842.42
2023-05-15T16:45:06.732Z,869.13
2023-05-15T16:47:34.211Z,861.45
2023-05-15T16:50:01.795Z,868.45
2023-05-15T16:52:31.867Z,855.08
2023-05-15T16:54:59.336Z,858.38
2023-05-15T16:57:27.038Z,843.42
2023-05-15T16:59:54.950Z,813.47
2023-05-15T17:02:23.730Z,816.42
2023-05-15T17:04:52.839Z,794.10
2023-05-15T17:07:23.632Z,826.70
2023-05-15T17:09:52.537Z,843.20
2023-05-15T17:12:19.963Z,824.42
2023-05-15T17:14:50.005Z,896.72
2023-05-15T17:17:17.604Z,952.15
2023-05-15T17:19:45.612Z,957.13
2023-05-15T17:22:13.083Z,961.85
2023-05-15T17:24:50.840Z,914.60
2023-05-15T17:27:19.501Z,917.10
2023-05-15T17:29:47.599Z,927.97
2023-05-15T17:32:16.867Z,917.90
2023-05-15T17:34:45.473Z,918.08
2023-05-15T17:37:13.453Z,955.90
2023-05-15T17:39:43.800Z,962.15
2023-05-15T17:42:11.279Z,972.85
2023-05-15T17:44:41.465Z,956.15
2023-05-15T17:47:10.218Z,955.45
2023-05-15T17:49:38.891Z,951.83
2023-05-15T17:52:07.694Z,952.28
2023-05-15T17:54:35.790Z,976.70
2023-05-15T17:57:03.829Z,989.70
2023-05-15T17:59:31.359Z,988.30
2023-05-15T18:01:59.017Z,991.55
2023-05-15T18:04:26.875Z,960.53
2023-05-15T18:06:54.536Z,957.47
2023-05-15T18:09:24.180Z,980.63
2023-05-15T18:11:52.478Z,983.22
2023-05-15T18:14:20.737Z,990.22
2023-05-15T18:16:48.296Z,985.97
2023-05-15T18:19:15.778Z,989.47
2023-05-15T18:21:43.536Z,977.65
2023-05-15T18:24:11.855Z,973.85
2023-05-15T18:26:39.315Z,968.67
2023-05-15T18:29:06.799Z,967.55
2023-05-15T18:31:34.306Z,974.10
2023-05-15T18:34:01.944Z,966.58
2023-05-15T18:36:29.613Z,970.97
2023-05-15T18:38:56.992Z,973.72
2023-05-15T18:41:24.443Z,983.95
2023-05-15T18:43:52.362Z,977.35
2023-05-15T18:46:20.361Z,976.05
2023-05-15T18:48:47.818Z,966.75
2023-05-15T18:51:15.474Z,970.47
2023-05-15T18:53:42.858Z,960.28
2023-05-15T18:56:10.853Z,952.55
2023-05-15T18:58:41.152Z,960.00
2023-05-15T19:01:08.662Z,966.08
2023-05-15T19:03:36.512Z,968.25
2023-05-15T19:06:06.931Z,968.45
2023-05-15T19:08:34.579Z,974.08
2023-05-15T19:11:01.997Z,974.78
2023-05-15T19:13:32.715Z,978.22
2023-05-15T19:16:00.143Z,965.47
2023-05-15T19:18:27.696Z,956.03
2023-05-15T19:20:56.746Z,968.88
2023-05-15T19:23:24.996Z,973.40
2023-05-15T19:25:52.753Z,958.05
2023-05-15T19:28:20.322Z,955.53
2023-05-15T19:30:47.822Z,955.80
2023-05-15T19:33:18.622Z,952.47
2023-05-15T19:35:46.109Z,976.65
2023-05-15T19:38:13.615Z,966.10
2023-05-15T19:40:44.153Z,963.25
2023-05-15T19:43:11.782Z,974.65
2023-05-15T19:45:42.472Z,966.63
2023-05-15T19:48:12.632Z,966.45
2023-05-15T19:50:40.111Z,965.22
2023-05-15T19:53:08.481Z,965.17
2023-05-15T19:55:36.342Z,962.30
2023-05-15T19:58:04.240Z,969.70
2023-05-15T20:00:32.210Z,968.28
2023-05-15T20:03:00.948Z,971.55
2023-05-15T20:05:29.048Z,968.50
2023-05-15T20:07:56.574Z,964.33
2023-05-15T20:10:25.312Z,968.40
2023-05-15T20:12:55.600Z,955.88
2023-05-15T20:15:23.296Z,960.05
2023-05-15T20:17:50.792Z,965.63
2023-05-15T20:20:21.617Z,965.90
2023-05-15T20:22:49.220Z,954.42
2023-05-15T20:25:18.537Z,976.88
2023-05-15T20:27:46.099Z,975.75
2023-05-15T20:30:13.648Z,981.00
2023-05-15T20:32:41.234Z,977.22
2023-05-15T20:35:12.375Z,967.20
2023-05-15T20:37:42.920Z,964.15
2023-05-15T20:40:15.876Z,973.72
2023-05-15T20:42:43.351Z,966.63
2023-05-15T20:45:11.094Z,969.20
2023-05-15T20:47:38.489Z,960.22
2023-05-15T20:50:06.666Z,965.58
2023-05-15T20:52:34.103Z,957.67
2023-05-15T20:55:01.599Z,959.67
2023-05-15T20:57:29.080Z,956.65
2023-05-15T20:59:56.589Z,947.88
2023-05-15T21:02:24.023Z,951.85
2023-05-15T21:04:51.414Z,962.50
2023-05-15T21:07:19.094Z,959.08
2023-05-15T21:09:47.095Z,955.75
2023-05-15T21:12:14.568Z,961.72
2023-05-15T21:14:41.947Z,955.53
2023-05-15T21:17:09.520Z,940.33
2023-05-15T21:19:37.042Z,943.90
2023-05-15T21:22:05.064Z,948.92
2023-05-15T21:24:32.513Z,938.58
2023-05-15T21:26:59.962Z,895.10
2023-05-15T21:29:27.349Z,880.00
2023-05-15T21:31:54.769Z,907.35
2023-05-15T21:34:22.158Z,914.38
2023-05-15T21:36:49.605Z,887.65
2023-05-15T21:39:16.986Z,881.53
2023-05-15T21:41:44.956Z,867.95
2023-05-15T21:44:12.671Z,847.05
2023-05-15T21:46:40.178Z,853.97
2023-05-15T21:49:07.611Z,852.33
2023-05-15T21:51:35.114Z,859.60
2023-05-15T21:54:02.539Z,869.75
2023-05-15T21:56:30.098Z,866.42
2023-05-15T21:58:57.653Z,867.90
2023-05-15T22:01:25.161Z,857.35
2023-05-15T22:03:52.607Z,841.42
2023-05-15T22:06:20.277Z,870.75
2023-05-15T22:08:49.078Z,864.50
2023-05-15T22:11:17.240Z,867.58
2023-05-15T22:13:44.667Z,839.08
2023-05-15T22:16:12.198Z,830.10
2023-05-15T22:18:39.883Z,844.42
2023-05-15T22:21:07.369Z,822.28
2023-05-15T22:23:34.823Z,813.10
2023-05-15T22:26:02.315Z,800.60
2023-05-15T22:28:29.831Z,818.33
2023-05-15T22:30:57.390Z,822.40
2023-05-15T22:33:25.075Z,812.33
2023-05-15T22:35:53.266Z,821.35
2023-05-15T22:38:21.138Z,635.22
2023-05-15T22:40:52.561Z,4.60
2023-05-15T22:43:21.520Z,4.78
2023-05-15T22:45:52.383Z,4.25
2023-05-15T22:48:20.186Z,4.35
2023-05-15T22:50:47.646Z,4.70
2023-05-15T22:53:16.179Z,4.20
2023-05-15T22:55:44.981Z,3.83
2023-05-15T22:58:12.949Z,4.53
2023-05-15T23:00:40.489Z,3.75
2023-05-15T23:03:08.462Z,2.85
2023-05-15T23:05:36.280Z,3.25
2023-05-15T23:08:04.260Z,2.95
2023-05-15T23:10:31.676Z,3.03
2023-05-15T23:12:59.273Z,3.17
2023-05-15T23:15:29.455Z,3.58
2023-05-15T23:17:57.051Z,3.28
2023-05-15T23:20:24.778Z,3.55
2023-05-15T23:22:52.542Z,2.67
2023-05-15T23:25:20.289Z,2.90
2023-05-15T23:27:47.763Z,2.95
2023-05-15T23:30:15.858Z,2.25
2023-05-15T23:32:43.324Z,2.38
2023-05-15T23:35:10.875Z,2.03
2023-05-15T23:37:38.750Z,2.22
2023-05-15T23:40:07.426Z,1.70
2023-05-15T23:42:35.031Z,1.52
2023-05-15T23:45:03.289Z,1.50
2023-05-15T23:47:30.832Z,1.75
2023-05-15T23:49:58.408Z,2.15
2023-05-15T23:52:25.968Z,1.77
2023-05-15T23:54:53.360Z,1.10
2023-05-15T23:57:21.318Z,1.73
2023-05-15T23:59:49.220Z,1.42
